sensor_id;sensor_type;location;lat;lon;timestamp;temperature;humidity
24164;DHT22;12319;49.204;8.116;2023-02-15T00:00:11;3.50;99.90
24164;DHT22;12319;49.204;8.116;2023-02-15T00:02:37;3.30;99.90
24164;DHT22;12319;49.204;8.116;2023-02-15T00:05:03;3.50;99.90
24164;DHT22;12319;49.204;8.116;2023-02-15T00:07:28;3.60;99.90
24164;DHT22;12319;49.204;8.116;2023-02-15T00:09:54;3.60;99.90
24164;DHT22;12319;49.204;8.116;2023-02-15T00:12:20;3.70;99.90
24164;DHT22;12319;49.204;8.116;2023-02-15T00:14:45;3.70;99.90
24164;DHT22;12319;49.204;8.116;2023-02-15T00:17:11;3.70;99.90
24164;DHT22;12319;49.204;8.116;2023-02-15T00:19:36;3.70;99.90
24164;DHT22;12319;49.204;8.116;2023-02-15T00:22:02;3.70;99.90
24164;DHT22;12319;49.204;8.116;2023-02-15T00:24:27;3.60;99.90
24164;DHT22;12319;49.204;8.116;2023-02-15T00:26:53;3.60;99.90
24164;DHT22;12319;49.204;8.116;2023-02-15T00:29:19;3.60;99.90
24164;DHT22;12319;49.204;8.116;2023-02-15T00:31:45;3.50;99.90
24164;DHT22;12319;49.204;8.116;2023-02-15T00:34:16;3.50;99.90
24164;DHT22;12319;49.204;8.116;2023-02-15T00:36:43;3.50;99.90
24164;DHT22;12319;49.204;8.116;2023-02-15T00:39:09;3.60;99.90
24164;DHT22;12319;49.204;8.116;2023-02-15T00:41:34;3.60;99.90
24164;DHT22;12319;49.204;8.116;2023-02-15T00:44:00;3.60;99.90
24164;DHT22;12319;49.204;8.116;2023-02-15T00:46:26;3.60;99.90
24164;DHT22;12319;49.204;8.116;2023-02-15T00:48:51;3.60;99.90
24164;DHT22;12319;49.204;8.116;2023-02-15T00:51:17;3.60;99.90
24164;DHT22;12319;49.204;8.116;2023-02-15T00:53:43;3.60;99.90
24164;DHT22;12319;49.204;8.116;2023-02-15T00:56:10;3.50;99.90
24164;DHT22;12319;49.204;8.116;2023-02-15T00:58:36;3.50;99.90
24164;DHT22;12319;49.204;8.116;2023-02-15T01:01:04;3.50;99.90
24164;DHT22;12319;49.204;8.116;2023-02-15T01:03:30;3.60;99.90
24164;DHT22;12319;49.204;8.116;2023-02-15T01:05:56;3.60;99.90
24164;DHT22;12319;49.204;8.116;2023-02-15T01:08:21;3.60;99.90
24164;DHT22;12319;49.204;8.116;2023-02-15T01:10:47;3.60;99.90
24164;DHT22;12319;49.204;8.116;2023-02-15T01:13:14;3.60;99.90
24164;DHT22;12319;49.204;8.116;2023-02-15T01:15:40;3.60;99.90
24164;DHT22;12319;49.204;8.116;2023-02-15T01:18:06;3.60;99.90
24164;DHT22;12319;49.204;8.116;2023-02-15T01:20:35;3.50;99.90
24164;DHT22;12319;49.204;8.116;2023-02-15T01:23:02;3.50;99.90
24164;DHT22;12319;49.204;8.116;2023-02-15T01:25:27;3.50;99.90
24164;DHT22;12319;49.204;8.116;2023-02-15T01:27:53;3.40;99.90
24164;DHT22;12319;49.204;8.116;2023-02-15T01:30:19;3.40;99.90
24164;DHT22;12319;49.204;8.116;2023-02-15T01:32:44;3.40;99.90
24164;DHT22;12319;49.204;8.116;2023-02-15T01:35:11;3.50;99.90
24164;DHT22;12319;49.204;8.116;2023-02-15T01:37:37;3.50;99.90
24164;DHT22;12319;49.204;8.116;2023-02-15T01:40:04;3.50;99.90
24164;DHT22;12319;49.204;8.116;2023-02-15T01:42:30;3.40;99.90
24164;DHT22;12319;49.204;8.116;2023-02-15T01:45:00;3.40;99.90
24164;DHT22;12319;49.204;8.116;2023-02-15T01:47:37;3.40;99.90
24164;DHT22;12319;49.204;8.116;2023-02-15T01:50:17;3.40;99.90
24164;DHT22;12319;49.204;8.116;2023-02-15T01:53:05;3.40;99.90
24164;DHT22;12319;49.204;8.116;2023-02-15T01:55:38;3.30;99.90
24164;DHT22;12319;49.204;8.116;2023-02-15T01:58:04;3.30;99.90
24164;DHT22;12319;49.204;8.116;2023-02-15T02:00:31;3.30;99.90
24164;DHT22;12319;49.204;8.116;2023-02-15T02:02:57;3.30;99.90
24164;DHT22;12319;49.204;8.116;2023-02-15T02:05:23;3.20;99.90
24164;DHT22;12319;49.204;8.116;2023-02-15T02:07:50;3.20;99.90
24164;DHT22;12319;49.204;8.116;2023-02-15T02:10:19;3.20;99.90
24164;DHT22;12319;49.204;8.116;2023-02-15T02:12:47;3.10;99.90
24164;DHT22;12319;49.204;8.116;2023-02-15T02:15:13;3.10;99.90
24164;DHT22;12319;49.204;8.116;2023-02-15T02:20:51;3.20;99.90
24164;DHT22;12319;49.204;8.116;2023-02-15T02:29:19;3.20;99.90
24164;DHT22;12319;49.204;8.116;2023-02-15T02:35:18;3.30;99.90
24164;DHT22;12319;49.204;8.116;2023-02-15T02:38:10;3.30;99.90
24164;DHT22;12319;49.204;8.116;2023-02-15T02:41:07;3.30;99.90
24164;DHT22;12319;49.204;8.116;2023-02-15T02:46:28;3.30;99.90
24164;DHT22;12319;49.204;8.116;2023-02-15T02:48:55;3.30;99.90
24164;DHT22;12319;49.204;8.116;2023-02-15T02:51:22;3.30;99.90
24164;DHT22;12319;49.204;8.116;2023-02-15T02:53:53;3.40;99.90
24164;DHT22;12319;49.204;8.116;2023-02-15T02:56:34;3.30;99.90
24164;DHT22;12319;49.204;8.116;2023-02-15T02:59:15;3.30;99.90
24164;DHT22;12319;49.204;8.116;2023-02-15T03:01:51;3.40;99.90
24164;DHT22;12319;49.204;8.116;2023-02-15T03:04:24;3.40;99.90
24164;DHT22;12319;49.204;8.116;2023-02-15T03:06:58;3.40;99.90
24164;DHT22;12319;49.204;8.116;2023-02-15T03:09:31;3.40;99.90
24164;DHT22;12319;49.204;8.116;2023-02-15T03:12:22;3.40;99.90
24164;DHT22;12319;49.204;8.116;2023-02-15T03:15:00;3.40;99.90
24164;DHT22;12319;49.204;8.116;2023-02-15T03:17:30;3.40;99.90
24164;DHT22;12319;49.204;8.116;2023-02-15T03:20:00;3.40;99.90
24164;DHT22;12319;49.204;8.116;2023-02-15T03:22:31;3.30;99.90
24164;DHT22;12319;49.204;8.116;2023-02-15T03:25:22;3.30;99.90
24164;DHT22;12319;49.204;8.116;2023-02-15T03:27:55;3.20;99.90
24164;DHT22;12319;49.204;8.116;2023-02-15T03:30:24;3.20;99.90
24164;DHT22;12319;49.204;8.116;2023-02-15T03:32:51;3.20;99.90
24164;DHT22;12319;49.204;8.116;2023-02-15T03:35:20;3.20;99.90
24164;DHT22;12319;49.204;8.116;2023-02-15T03:37:48;3.30;99.90
24164;DHT22;12319;49.204;8.116;2023-02-15T03:40:28;3.30;99.90
24164;DHT22;12319;49.204;8.116;2023-02-15T03:43:34;3.30;99.90
24164;DHT22;12319;49.204;8.116;2023-02-15T03:48:50;3.30;99.90
24164;DHT22;12319;49.204;8.116;2023-02-15T03:51:20;3.30;99.90
24164;DHT22;12319;49.204;8.116;2023-02-15T03:54:42;3.30;99.90
24164;DHT22;12319;49.204;8.116;2023-02-15T03:57:25;3.20;99.90
24164;DHT22;12319;49.204;8.116;2023-02-15T04:00:23;3.20;99.90
24164;DHT22;12319;49.204;8.116;2023-02-15T04:04:03;3.20;99.90
24164;DHT22;12319;49.204;8.116;2023-02-15T04:06:08;3.30;99.90
24164;DHT22;12319;49.204;8.116;2023-02-15T04:08:34;3.30;99.90
24164;DHT22;12319;49.204;8.116;2023-02-15T04:11:18;3.30;99.90
24164;DHT22;12319;49.204;8.116;2023-02-15T04:13:44;3.40;99.90
24164;DHT22;12319;49.204;8.116;2023-02-15T04:16:09;3.40;99.90
24164;DHT22;12319;49.204;8.116;2023-02-15T04:18:41;3.50;99.90
24164;DHT22;12319;49.204;8.116;2023-02-15T04:21:28;3.50;99.90
24164;DHT22;12319;49.204;8.116;2023-02-15T04:24:12;3.60;99.90
24164;DHT22;12319;49.204;8.116;2023-02-15T04:26:58;3.60;99.90
24164;DHT22;12319;49.204;8.116;2023-02-15T04:29:24;3.60;99.90
24164;DHT22;12319;49.204;8.116;2023-02-15T04:31:52;3.60;99.90
24164;DHT22;12319;49.204;8.116;2023-02-15T04:34:18;3.60;99.90
24164;DHT22;12319;49.204;8.116;2023-02-15T04:36:44;3.60;99.90
24164;DHT22;12319;49.204;8.116;2023-02-15T04:39:12;3.50;99.90
24164;DHT22;12319;49.204;8.116;2023-02-15T04:41:38;3.50;99.90
24164;DHT22;12319;49.204;8.116;2023-02-15T04:44:04;3.50;99.90
24164;DHT22;12319;49.204;8.116;2023-02-15T04:46:30;3.50;99.90
24164;DHT22;12319;49.204;8.116;2023-02-15T04:48:56;3.50;99.90
24164;DHT22;12319;49.204;8.116;2023-02-15T04:51:22;3.50;99.90
24164;DHT22;12319;49.204;8.116;2023-02-15T04:53:47;3.60;99.90
24164;DHT22;12319;49.204;8.116;2023-02-15T04:56:13;3.60;99.90
24164;DHT22;12319;49.204;8.116;2023-02-15T04:58:39;3.60;99.90
24164;DHT22;12319;49.204;8.116;2023-02-15T05:01:08;3.60;99.90
24164;DHT22;12319;49.204;8.116;2023-02-15T05:03:34;3.60;99.90
24164;DHT22;12319;49.204;8.116;2023-02-15T05:06:00;3.60;99.90
24164;DHT22;12319;49.204;8.116;2023-02-15T05:08:26;3.60;99.90
24164;DHT22;12319;49.204;8.116;2023-02-15T05:10:52;3.60;99.90
24164;DHT22;12319;49.204;8.116;2023-02-15T05:13:17;3.60;99.90
24164;DHT22;12319;49.204;8.116;2023-02-15T05:15:48;3.80;99.90
24164;DHT22;12319;49.204;8.116;2023-02-15T05:18:14;3.70;99.90
24164;DHT22;12319;49.204;8.116;2023-02-15T05:20:40;3.70;99.90
24164;DHT22;12319;49.204;8.116;2023-02-15T05:23:05;3.70;99.90
24164;DHT22;12319;49.204;8.116;2023-02-15T05:25:31;3.60;99.90
24164;DHT22;12319;49.204;8.116;2023-02-15T05:28:15;3.60;99.90
24164;DHT22;12319;49.204;8.116;2023-02-15T05:30:52;3.70;99.90
24164;DHT22;12319;49.204;8.116;2023-02-15T05:33:24;3.70;99.90
24164;DHT22;12319;49.204;8.116;2023-02-15T05:35:50;3.70;99.90
24164;DHT22;12319;49.204;8.116;2023-02-15T05:38:16;3.70;99.90
24164;DHT22;12319;49.204;8.116;2023-02-15T05:40:42;3.70;99.90
24164;DHT22;12319;49.204;8.116;2023-02-15T05:43:07;3.70;99.90
24164;DHT22;12319;49.204;8.116;2023-02-15T05:45:33;3.60;99.90
24164;DHT22;12319;49.204;8.116;2023-02-15T05:47:59;3.60;99.90
24164;DHT22;12319;49.204;8.116;2023-02-15T05:50:24;3.60;99.90
24164;DHT22;12319;49.204;8.116;2023-02-15T05:52:50;3.50;99.90
24164;DHT22;12319;49.204;8.116;2023-02-15T05:55:16;3.60;99.90
24164;DHT22;12319;49.204;8.116;2023-02-15T05:57:41;3.60;99.90
24164;DHT22;12319;49.204;8.116;2023-02-15T06:00:08;3.60;99.90
24164;DHT22;12319;49.204;8.116;2023-02-15T06:02:36;3.60;99.90
24164;DHT22;12319;49.204;8.116;2023-02-15T06:05:03;3.60;99.90
24164;DHT22;12319;49.204;8.116;2023-02-15T06:07:28;3.70;99.90
24164;DHT22;12319;49.204;8.116;2023-02-15T06:09:54;3.60;99.90
24164;DHT22;12319;49.204;8.116;2023-02-15T06:12:20;3.60;99.90
24164;DHT22;12319;49.204;8.116;2023-02-15T06:14:45;3.60;99.90
24164;DHT22;12319;49.204;8.116;2023-02-15T06:17:11;3.60;99.90
24164;DHT22;12319;49.204;8.116;2023-02-15T06:19:37;3.50;99.90
24164;DHT22;12319;49.204;8.116;2023-02-15T06:22:02;3.50;99.90
24164;DHT22;12319;49.204;8.116;2023-02-15T06:24:28;3.50;99.90
24164;DHT22;12319;49.204;8.116;2023-02-15T06:26:54;3.50;99.90
24164;DHT22;12319;49.204;8.116;2023-02-15T06:29:19;3.40;99.90
24164;DHT22;12319;49.204;8.116;2023-02-15T06:31:45;3.40;99.90
24164;DHT22;12319;49.204;8.116;2023-02-15T06:34:11;3.40;99.90
24164;DHT22;12319;49.204;8.116;2023-02-15T06:36:37;3.50;99.90
24164;DHT22;12319;49.204;8.116;2023-02-15T06:39:03;3.50;99.90
24164;DHT22;12319;49.204;8.116;2023-02-15T06:41:29;3.50;99.90
24164;DHT22;12319;49.204;8.116;2023-02-15T06:43:54;3.50;99.90
24164;DHT22;12319;49.204;8.116;2023-02-15T06:46:20;3.50;99.90
24164;DHT22;12319;49.204;8.116;2023-02-15T06:48:46;3.50;99.90
24164;DHT22;12319;49.204;8.116;2023-02-15T06:51:11;3.50;99.90
24164;DHT22;12319;49.204;8.116;2023-02-15T06:53:37;3.40;99.90
24164;DHT22;12319;49.204;8.116;2023-02-15T06:56:03;3.40;99.90
24164;DHT22;12319;49.204;8.116;2023-02-15T06:58:38;3.40;99.90
24164;DHT22;12319;49.204;8.116;2023-02-15T07:01:04;3.40;99.90
24164;DHT22;12319;49.204;8.116;2023-02-15T07:03:30;3.50;99.90
24164;DHT22;12319;49.204;8.116;2023-02-15T07:05:58;3.50;99.90
24164;DHT22;12319;49.204;8.116;2023-02-15T07:08:25;3.40;99.90
24164;DHT22;12319;49.204;8.116;2023-02-15T07:10:52;3.40;99.90
24164;DHT22;12319;49.204;8.116;2023-02-15T07:13:18;3.30;99.90
24164;DHT22;12319;49.204;8.116;2023-02-15T07:15:45;3.20;99.90
24164;DHT22;12319;49.204;8.116;2023-02-15T07:18:11;3.20;99.90
24164;DHT22;12319;49.204;8.116;2023-02-15T07:20:37;3.20;99.90
24164;DHT22;12319;49.204;8.116;2023-02-15T07:23:04;3.30;99.90
24164;DHT22;12319;49.204;8.116;2023-02-15T07:25:31;3.30;99.90
24164;DHT22;12319;49.204;8.116;2023-02-15T07:28:01;3.40;99.90
24164;DHT22;12319;49.204;8.116;2023-02-15T07:30:28;3.40;99.90
24164;DHT22;12319;49.204;8.116;2023-02-15T07:32:57;3.40;99.90
24164;DHT22;12319;49.204;8.116;2023-02-15T07:35:52;3.40;99.90
24164;DHT22;12319;49.204;8.116;2023-02-15T07:38:18;3.40;99.90
24164;DHT22;12319;49.204;8.116;2023-02-15T07:40:44;3.40;99.90
24164;DHT22;12319;49.204;8.116;2023-02-15T07:43:11;3.50;99.90
24164;DHT22;12319;49.204;8.116;2023-02-15T07:45:37;3.50;99.90
24164;DHT22;12319;49.204;8.116;2023-02-15T07:48:04;3.50;99.90
24164;DHT22;12319;49.204;8.116;2023-02-15T07:50:30;3.60;99.90
24164;DHT22;12319;49.204;8.116;2023-02-15T07:52:56;3.60;99.90
24164;DHT22;12319;49.204;8.116;2023-02-15T07:55:21;3.70;99.90
24164;DHT22;12319;49.204;8.116;2023-02-15T07:57:48;3.60;99.90
24164;DHT22;12319;49.204;8.116;2023-02-15T08:00:19;3.60;99.90
24164;DHT22;12319;49.204;8.116;2023-02-15T08:02:50;3.60;99.90
24164;DHT22;12319;49.204;8.116;2023-02-15T08:05:35;3.60;99.90
24164;DHT22;12319;49.204;8.116;2023-02-15T08:08:01;3.60;99.90
24164;DHT22;12319;49.204;8.116;2023-02-15T08:10:26;3.60;99.90
24164;DHT22;12319;49.204;8.116;2023-02-15T08:13:12;3.60;99.90
24164;DHT22;12319;49.204;8.116;2023-02-15T08:15:37;3.60;99.90
24164;DHT22;12319;49.204;8.116;2023-02-15T08:18:03;3.70;99.90
24164;DHT22;12319;49.204;8.116;2023-02-15T08:20:29;3.70;99.90
24164;DHT22;12319;49.204;8.116;2023-02-15T08:22:54;3.70;99.90
24164;DHT22;12319;49.204;8.116;2023-02-15T08:25:20;3.70;99.90
24164;DHT22;12319;49.204;8.116;2023-02-15T08:27:45;3.70;99.90
24164;DHT22;12319;49.204;8.116;2023-02-15T08:30:11;3.80;99.90
24164;DHT22;12319;49.204;8.116;2023-02-15T08:32:39;3.80;99.90
24164;DHT22;12319;49.204;8.116;2023-02-15T08:35:05;3.80;99.90
24164;DHT22;12319;49.204;8.116;2023-02-15T08:37:31;3.80;99.90
24164;DHT22;12319;49.204;8.116;2023-02-15T08:39:56;3.80;99.90
24164;DHT22;12319;49.204;8.116;2023-02-15T08:42:22;3.90;99.90
24164;DHT22;12319;49.204;8.116;2023-02-15T08:44:47;3.90;99.90
24164;DHT22;12319;49.204;8.116;2023-02-15T08:47:15;3.90;99.90
24164;DHT22;12319;49.204;8.116;2023-02-15T08:49:41;3.90;99.90
24164;DHT22;12319;49.204;8.116;2023-02-15T08:52:06;3.90;99.90
24164;DHT22;12319;49.204;8.116;2023-02-15T08:54:32;3.90;99.90
24164;DHT22;12319;49.204;8.116;2023-02-15T08:56:58;4.00;99.90
24164;DHT22;12319;49.204;8.116;2023-02-15T08:59:24;4.00;99.90
24164;DHT22;12319;49.204;8.116;2023-02-15T09:01:52;4.00;99.90
24164;DHT22;12319;49.204;8.116;2023-02-15T09:04:19;4.00;99.90
24164;DHT22;12319;49.204;8.116;2023-02-15T09:06:46;4.00;99.90
24164;DHT22;12319;49.204;8.116;2023-02-15T09:09:12;4.00;99.90
24164;DHT22;12319;49.204;8.116;2023-02-15T09:11:42;4.00;99.90
24164;DHT22;12319;49.204;8.116;2023-02-15T09:14:11;4.00;99.90
24164;DHT22;12319;49.204;8.116;2023-02-15T09:16:42;4.00;99.90
24164;DHT22;12319;49.204;8.116;2023-02-15T09:19:10;3.90;99.90
24164;DHT22;12319;49.204;8.116;2023-02-15T09:21:36;4.00;99.90
24164;DHT22;12319;49.204;8.116;2023-02-15T09:24:05;4.00;99.90
24164;DHT22;12319;49.204;8.116;2023-02-15T09:26:33;4.00;99.90
24164;DHT22;12319;49.204;8.116;2023-02-15T09:29:00;4.10;99.90
24164;DHT22;12319;49.204;8.116;2023-02-15T09:31:28;4.00;99.90
24164;DHT22;12319;49.204;8.116;2023-02-15T09:33:55;4.10;99.90
24164;DHT22;12319;49.204;8.116;2023-02-15T09:36:30;4.00;99.90
24164;DHT22;12319;49.204;8.116;2023-02-15T09:38:58;4.00;99.90
24164;DHT22;12319;49.204;8.116;2023-02-15T09:52:34;4.10;99.90
24164;DHT22;12319;49.204;8.116;2023-02-15T09:58:07;4.10;99.90
24164;DHT22;12319;49.204;8.116;2023-02-15T10:06:32;4.10;99.90
24164;DHT22;12319;49.204;8.116;2023-02-15T10:27:46;4.30;99.90
24164;DHT22;12319;49.204;8.116;2023-02-15T10:30:14;4.30;99.90
24164;DHT22;12319;49.204;8.116;2023-02-15T10:38:26;4.50;99.90
24164;DHT22;12319;49.204;8.116;2023-02-15T10:44:05;4.60;99.90
24164;DHT22;12319;49.204;8.116;2023-02-15T11:01:39;4.90;99.90
24164;DHT22;12319;49.204;8.116;2023-02-15T11:07:17;5.00;99.90
24164;DHT22;12319;49.204;8.116;2023-02-15T11:09:49;5.00;99.90
24164;DHT22;12319;49.204;8.116;2023-02-15T11:12:20;5.10;99.90
24164;DHT22;12319;49.204;8.116;2023-02-15T11:15:03;5.10;99.90
24164;DHT22;12319;49.204;8.116;2023-02-15T11:17:40;5.20;99.90
24164;DHT22;12319;49.204;8.116;2023-02-15T11:20:28;5.20;99.90
24164;DHT22;12319;49.204;8.116;2023-02-15T11:22:55;5.30;99.90
24164;DHT22;12319;49.204;8.116;2023-02-15T11:25:40;5.40;99.90
24164;DHT22;12319;49.204;8.116;2023-02-15T11:28:23;5.50;99.90
24164;DHT22;12319;49.204;8.116;2023-02-15T11:30:53;5.50;99.90
24164;DHT22;12319;49.204;8.116;2023-02-15T11:33:34;5.50;99.90
24164;DHT22;12319;49.204;8.116;2023-02-15T11:36:13;5.50;99.90
24164;DHT22;12319;49.204;8.116;2023-02-15T11:38:42;5.60;99.90
24164;DHT22;12319;49.204;8.116;2023-02-15T11:41:11;5.60;99.90
24164;DHT22;12319;49.204;8.116;2023-02-15T11:43:42;5.60;99.90
24164;DHT22;12319;49.204;8.116;2023-02-15T11:46:11;5.70;99.90
24164;DHT22;12319;49.204;8.116;2023-02-15T11:48:38;5.80;99.90
24164;DHT22;12319;49.204;8.116;2023-02-15T11:51:04;5.90;99.90
24164;DHT22;12319;49.204;8.116;2023-02-15T11:53:36;5.90;99.90
24164;DHT22;12319;49.204;8.116;2023-02-15T11:56:03;6.00;99.90
24164;DHT22;12319;49.204;8.116;2023-02-15T11:58:30;6.00;99.90
24164;DHT22;12319;49.204;8.116;2023-02-15T12:01:01;6.00;99.90
24164;DHT22;12319;49.204;8.116;2023-02-15T12:03:43;6.10;99.90
24164;DHT22;12319;49.204;8.116;2023-02-15T12:06:26;6.10;99.90
24164;DHT22;12319;49.204;8.116;2023-02-15T12:09:00;6.20;99.90
24164;DHT22;12319;49.204;8.116;2023-02-15T12:11:38;6.20;99.90
24164;DHT22;12319;49.204;8.116;2023-02-15T12:14:08;6.30;99.90
24164;DHT22;12319;49.204;8.116;2023-02-15T12:19:29;6.30;99.90
24164;DHT22;12319;49.204;8.116;2023-02-15T12:21:56;6.40;99.90
24164;DHT22;12319;49.204;8.116;2023-02-15T12:24:36;6.40;99.90
24164;DHT22;12319;49.204;8.116;2023-02-15T12:27:37;6.50;99.90
24164;DHT22;12319;49.204;8.116;2023-02-15T12:30:01;6.50;99.90
24164;DHT22;12319;49.204;8.116;2023-02-15T12:32:33;6.60;99.90
24164;DHT22;12319;49.204;8.116;2023-02-15T12:35:30;6.70;99.90
24164;DHT22;12319;49.204;8.116;2023-02-15T12:40:41;6.70;99.90
24164;DHT22;12319;49.204;8.116;2023-02-15T12:46:14;6.90;99.90
24164;DHT22;12319;49.204;8.116;2023-02-15T12:48:44;6.90;99.70
24164;DHT22;12319;49.204;8.116;2023-02-15T12:51:15;6.90;99.80
24164;DHT22;12319;49.204;8.116;2023-02-15T12:53:41;6.90;99.80
24164;DHT22;12319;49.204;8.116;2023-02-15T12:56:09;7.00;99.90
24164;DHT22;12319;49.204;8.116;2023-02-15T12:58:37;7.10;99.80
24164;DHT22;12319;49.204;8.116;2023-02-15T13:01:10;7.20;99.70
24164;DHT22;12319;49.204;8.116;2023-02-15T13:04:08;7.20;99.40
24164;DHT22;12319;49.204;8.116;2023-02-15T13:06:47;7.20;99.20
24164;DHT22;12319;49.204;8.116;2023-02-15T13:09:17;7.20;99.40
24164;DHT22;12319;49.204;8.116;2023-02-15T13:11:45;7.30;99.60
24164;DHT22;12319;49.204;8.116;2023-02-15T13:14:31;7.30;99.50
24164;DHT22;12319;49.204;8.116;2023-02-15T13:17:00;7.30;99.30
24164;DHT22;12319;49.204;8.116;2023-02-15T13:19:45;7.50;99.40
24164;DHT22;12319;49.204;8.116;2023-02-15T13:22:20;7.60;98.90
24164;DHT22;12319;49.204;8.116;2023-02-15T13:24:50;7.70;98.80
24164;DHT22;12319;49.204;8.116;2023-02-15T13:27:19;7.70;98.70
24164;DHT22;12319;49.204;8.116;2023-02-15T13:29:52;7.70;98.20
24164;DHT22;12319;49.204;8.116;2023-02-15T13:32:32;7.70;98.20
24164;DHT22;12319;49.204;8.116;2023-02-15T13:35:00;7.60;98.30
24164;DHT22;12319;49.204;8.116;2023-02-15T13:40:00;7.60;98.80
24164;DHT22;12319;49.204;8.116;2023-02-15T13:48:18;7.70;99.10
24164;DHT22;12319;49.204;8.116;2023-02-15T14:10:43;7.60;98.20
24164;DHT22;12319;49.204;8.116;2023-02-15T14:16:55;7.60;98.20
24164;DHT22;12319;49.204;8.116;2023-02-15T14:19:39;7.60;98.00
24164;DHT22;12319;49.204;8.116;2023-02-15T14:25:23;7.50;98.20
24164;DHT22;12319;49.204;8.116;2023-02-15T14:30:39;7.50;98.30
24164;DHT22;12319;49.204;8.116;2023-02-15T14:33:31;7.50;98.50
24164;DHT22;12319;49.204;8.116;2023-02-15T14:35:59;7.60;98.50
24164;DHT22;12319;49.204;8.116;2023-02-15T14:38:33;7.70;98.30
24164;DHT22;12319;49.204;8.116;2023-02-15T14:46:49;7.50;97.70
24164;DHT22;12319;49.204;8.116;2023-02-15T14:49:26;7.40;98.00
24164;DHT22;12319;49.204;8.116;2023-02-15T14:52:00;7.30;98.20
24164;DHT22;12319;49.204;8.116;2023-02-15T14:59:36;7.00;98.30
24164;DHT22;12319;49.204;8.116;2023-02-15T15:04:36;6.80;98.60
24164;DHT22;12319;49.204;8.116;2023-02-15T15:07:24;6.80;98.90
24164;DHT22;12319;49.204;8.116;2023-02-15T15:12:47;6.70;99.30
24164;DHT22;12319;49.204;8.116;2023-02-15T15:31:41;6.70;99.90
24164;DHT22;12319;49.204;8.116;2023-02-15T15:34:27;6.60;99.80
24164;DHT22;12319;49.204;8.116;2023-02-15T15:37:46;6.60;99.80
24164;DHT22;12319;49.204;8.116;2023-02-15T15:46:18;6.30;99.90
24164;DHT22;12319;49.204;8.116;2023-02-15T15:48:47;6.20;99.90
24164;DHT22;12319;49.204;8.116;2023-02-15T15:51:18;6.10;99.90
24164;DHT22;12319;49.204;8.116;2023-02-15T15:53:47;6.00;99.90
24164;DHT22;12319;49.204;8.116;2023-02-15T15:56:23;5.90;99.90
24164;DHT22;12319;49.204;8.116;2023-02-15T15:58:56;5.90;99.90
24164;DHT22;12319;49.204;8.116;2023-02-15T16:01:42;5.80;99.90
24164;DHT22;12319;49.204;8.116;2023-02-15T16:04:24;5.80;99.90
24164;DHT22;12319;49.204;8.116;2023-02-15T16:06:51;5.80;99.90
24164;DHT22;12319;49.204;8.116;2023-02-15T16:09:22;5.80;99.90
24164;DHT22;12319;49.204;8.116;2023-02-15T16:11:58;5.70;99.90
24164;DHT22;12319;49.204;8.116;2023-02-15T16:14:46;5.70;99.90
24164;DHT22;12319;49.204;8.116;2023-02-15T16:17:27;5.60;99.90
24164;DHT22;12319;49.204;8.116;2023-02-15T16:20:18;5.60;99.90
24164;DHT22;12319;49.204;8.116;2023-02-15T16:22:55;5.50;99.90
24164;DHT22;12319;49.204;8.116;2023-02-15T16:28:12;5.40;99.90
24164;DHT22;12319;49.204;8.116;2023-02-15T16:30:38;5.40;99.90
24164;DHT22;12319;49.204;8.116;2023-02-15T16:33:13;5.30;99.90
24164;DHT22;12319;49.204;8.116;2023-02-15T16:36:02;5.30;99.90
24164;DHT22;12319;49.204;8.116;2023-02-15T16:41:29;5.20;99.90
24164;DHT22;12319;49.204;8.116;2023-02-15T16:44:04;5.20;99.90
24164;DHT22;12319;49.204;8.116;2023-02-15T16:46:33;5.20;99.90
24164;DHT22;12319;49.204;8.116;2023-02-15T16:49:05;5.10;99.90
24164;DHT22;12319;49.204;8.116;2023-02-15T16:51:33;5.10;99.90
24164;DHT22;12319;49.204;8.116;2023-02-15T16:54:07;5.10;99.90
24164;DHT22;12319;49.204;8.116;2023-02-15T16:56:34;5.00;99.90
24164;DHT22;12319;49.204;8.116;2023-02-15T16:59:02;5.00;99.90
24164;DHT22;12319;49.204;8.116;2023-02-15T17:01:30;5.00;99.90
24164;DHT22;12319;49.204;8.116;2023-02-15T17:09:23;4.80;99.90
24164;DHT22;12319;49.204;8.116;2023-02-15T17:11:50;4.80;99.90
24164;DHT22;12319;49.204;8.116;2023-02-15T17:14:30;4.80;99.90
24164;DHT22;12319;49.204;8.116;2023-02-15T17:17:02;4.70;99.90
24164;DHT22;12319;49.204;8.116;2023-02-15T17:19:40;4.60;99.90
24164;DHT22;12319;49.204;8.116;2023-02-15T17:22:19;4.60;99.90
24164;DHT22;12319;49.204;8.116;2023-02-15T17:24:46;4.60;99.90
24164;DHT22;12319;49.204;8.116;2023-02-15T17:27:19;4.60;99.90
24164;DHT22;12319;49.204;8.116;2023-02-15T17:29:57;4.60;99.90
24164;DHT22;12319;49.204;8.116;2023-02-15T17:32:26;4.50;99.90
24164;DHT22;12319;49.204;8.116;2023-02-15T17:35:16;4.50;99.90
24164;DHT22;12319;49.204;8.116;2023-02-15T17:37:47;4.50;99.90
24164;DHT22;12319;49.204;8.116;2023-02-15T17:40:20;4.50;99.90
24164;DHT22;12319;49.204;8.116;2023-02-15T17:42:46;4.50;99.90
24164;DHT22;12319;49.204;8.116;2023-02-15T17:45:11;4.50;99.90
24164;DHT22;12319;49.204;8.116;2023-02-15T17:47:37;4.60;99.90
24164;DHT22;12319;49.204;8.116;2023-02-15T17:50:04;4.60;99.90
24164;DHT22;12319;49.204;8.116;2023-02-15T17:52:30;4.60;99.90
24164;DHT22;12319;49.204;8.116;2023-02-15T17:54:55;4.70;99.90
24164;DHT22;12319;49.204;8.116;2023-02-15T17:57:40;4.70;99.90
24164;DHT22;12319;49.204;8.116;2023-02-15T18:00:07;4.70;99.90
24164;DHT22;12319;49.204;8.116;2023-02-15T18:02:51;4.60;99.90
24164;DHT22;12319;49.204;8.116;2023-02-15T18:05:36;4.60;99.90
24164;DHT22;12319;49.204;8.116;2023-02-15T18:08:26;4.60;99.90
24164;DHT22;12319;49.204;8.116;2023-02-15T18:11:10;4.70;99.90
24164;DHT22;12319;49.204;8.116;2023-02-15T18:13:55;4.70;99.90
24164;DHT22;12319;49.204;8.116;2023-02-15T18:16:27;4.70;99.90
24164;DHT22;12319;49.204;8.116;2023-02-15T18:18:55;4.70;99.90
24164;DHT22;12319;49.204;8.116;2023-02-15T18:21:21;4.70;99.90
24164;DHT22;12319;49.204;8.116;2023-02-15T18:23:46;4.70;99.90
24164;DHT22;12319;49.204;8.116;2023-02-15T18:26:20;4.70;99.90
24164;DHT22;12319;49.204;8.116;2023-02-15T18:28:46;4.70;99.90
24164;DHT22;12319;49.204;8.116;2023-02-15T18:31:13;4.70;99.90
24164;DHT22;12319;49.204;8.116;2023-02-15T18:33:44;4.70;99.90
24164;DHT22;12319;49.204;8.116;2023-02-15T18:36:16;4.60;99.90
24164;DHT22;12319;49.204;8.116;2023-02-15T18:38:45;4.60;99.90
24164;DHT22;12319;49.204;8.116;2023-02-15T18:41:18;4.60;99.90
24164;DHT22;12319;49.204;8.116;2023-02-15T18:43:44;4.60;99.90
24164;DHT22;12319;49.204;8.116;2023-02-15T18:46:11;4.60;99.90
24164;DHT22;12319;49.204;8.116;2023-02-15T18:48:36;4.60;99.90
24164;DHT22;12319;49.204;8.116;2023-02-15T18:51:02;4.60;99.90
24164;DHT22;12319;49.204;8.116;2023-02-15T18:53:28;4.60;99.90
24164;DHT22;12319;49.204;8.116;2023-02-15T18:55:53;4.60;99.90
24164;DHT22;12319;49.204;8.116;2023-02-15T18:58:21;4.60;99.90
24164;DHT22;12319;49.204;8.116;2023-02-15T19:00:48;4.60;99.90
24164;DHT22;12319;49.204;8.116;2023-02-15T19:03:15;4.60;99.90
24164;DHT22;12319;49.204;8.116;2023-02-15T19:05:43;4.60;99.90
24164;DHT22;12319;49.204;8.116;2023-02-15T19:08:16;4.50;99.90